Weather History for KHZE - May, 2014

Change the Weather History Date:

Friday, May 16, 2014

  Actual Average (KN60) Record (KN60)
Temperature  
Mean Temperature 50 °F -  
Max Temperature 62 °F 63 °F 81 °F (1997)
Min Temperature 37 °F 38 °F 26 °F (2004)
Degree Days  
Heating Degree Days 16    
Moisture  
Dew Point 27 °F    
Average Humidity 46    
Maximum Humidity 75    
Minimum Humidity 17    
Precipitation  
Precipitation 0.00 in - - ()
Sea Level Pressure  
Sea Level Pressure 30.06 in    
Wind  
Wind Speed 7 mph (ENE)    
Max Wind Speed 16 mph    
Max Gust Speed 20 mph    
Visibility 10 miles    
Events      
Averages and records for this station are not official NWS values.
T = Trace of Precipitation, MM = Missing Value Source: NWS Daily Summary

Daily Weather History Graph

Daily Weather History Graph

Search for Another Location

Airport or City:

Trip Planner

Search our weather history database for the weather conditions in past years. The results will help you decide how hot, cold, wet, or windy it might be!

Date:

Astronomy

May. 16, 2014 Rise Set
Actual Time 6:08 AM CDT 9:17 PM CDT
Civil Twilight 5:32 AM CDT 9:54 PM CDT
Nautical Twilight 4:44 AM CDT 10:41 PM CDT
Astronomical Twilight 3:46 AM CDT 11:40 PM CDT
Moon 11:25 PM CDT (5/16) 7:52 AM CDT (5/16)
Length of Visible Light 16h 21m
Length of Day
15h 08m
Waning Gibbous, 95% of the Moon is Illuminated
May 16
Waning Gibbous
May 21
Last Quarter
May 28
New
Jun 5
First Quarter
Jun 12
Full

Hourly Weather History & Observations

Time (CDT) Temp. Windchill Dew Point Humidity Pressure Visibility Wind Dir Wind Speed Gust Speed Precip Events Conditions
12:15 AM 48.2 °F - 24.8 °F 40% 30.06 in 10.0 mi SSE 16.1 mph - N/A   Clear
12:35 AM 46.4 °F 40.4 °F 24.8 °F 43% 30.06 in 10.0 mi SE 13.8 mph - N/A   Scattered Clouds
12:55 AM 44.6 °F 38.4 °F 24.8 °F 46% 30.05 in 10.0 mi SE 12.7 mph - N/A   Mostly Cloudy
1:15 AM 44.6 °F 38.4 °F 24.8 °F 46% 30.04 in 10.0 mi SSE 12.7 mph 19.6 mph N/A   Partly Cloudy
1:35 AM 44.6 °F 39.2 °F 24.8 °F 46% 30.05 in 10.0 mi SSE 10.4 mph - N/A   Partly Cloudy
1:55 AM 44.6 °F 39.7 °F 26.6 °F 49% 30.05 in 10.0 mi SSE 9.2 mph - N/A   Mostly Cloudy
2:15 AM 42.8 °F 41.1 °F 26.6 °F 53% 30.05 in 10.0 mi SE 3.5 mph - N/A   Overcast
2:35 AM 41.0 °F 35.8 °F 26.6 °F 57% 30.05 in 10.0 mi NE 8.1 mph - N/A   Overcast
2:55 AM 42.8 °F 38.6 °F 26.6 °F 53% 30.05 in 10.0 mi SE 6.9 mph - N/A   Overcast
3:15 AM 42.8 °F - 26.6 °F 53% 30.04 in 10.0 mi Calm Calm - N/A   Overcast
3:35 AM 41.0 °F 35.8 °F 28.4 °F 61% 30.05 in 10.0 mi NE 8.1 mph - N/A   Overcast
3:55 AM 41.0 °F 36.4 °F 28.4 °F 61% 30.05 in 10.0 mi East 6.9 mph - N/A   Overcast
4:15 AM 41.0 °F 39.0 °F 28.4 °F 61% 30.05 in 10.0 mi ENE 3.5 mph - N/A   Overcast
4:35 AM 39.2 °F 35.9 °F 28.4 °F 65% 30.04 in 10.0 mi ENE 4.6 mph - N/A   Overcast
4:55 AM 39.2 °F 33.6 °F 28.4 °F 65% 30.04 in 10.0 mi ENE 8.1 mph - N/A   Overcast
5:15 AM 39.2 °F 35.9 °F 28.4 °F 65% 30.04 in 10.0 mi ENE 4.6 mph - N/A   Overcast
5:35 AM 39.2 °F 35.0 °F 28.4 °F 65% 30.04 in 10.0 mi ESE 5.8 mph - N/A   Mostly Cloudy
5:55 AM 39.2 °F 35.9 °F 28.4 °F 65% 30.04 in 10.0 mi East 4.6 mph - N/A   Partly Cloudy
6:15 AM 39.2 °F 35.9 °F 28.4 °F 65% 30.05 in 10.0 mi East 4.6 mph - N/A   Clear
6:35 AM 37.4 °F 34.9 °F 28.4 °F 70% 30.05 in 10.0 mi East 3.5 mph - N/A   Clear
6:55 AM 37.4 °F 34.9 °F 28.4 °F 70% 30.06 in 10.0 mi East 3.5 mph - N/A   Clear
7:15 AM 37.4 °F - 28.4 °F 70% 30.06 in 10.0 mi Calm Calm - N/A   Clear
7:35 AM 37.4 °F - 30.2 °F 75% 30.07 in 10.0 mi Calm Calm - N/A   Clear
7:55 AM 41.0 °F - 28.4 °F 61% 30.07 in 10.0 mi Calm Calm - N/A   Clear
8:15 AM 41.0 °F - 28.4 °F 61% 30.07 in 10.0 mi Calm Calm - N/A   Clear
8:35 AM 42.8 °F - 30.2 °F 61% 30.08 in 10.0 mi Calm Calm - N/A   Clear
8:55 AM 44.6 °F - 30.2 °F 57% 30.08 in 10.0 mi Calm Calm - N/A   Clear
9:15 AM 46.4 °F 44.3 °F 32.0 °F 57% 30.08 in 10.0 mi SW 4.6 mph - N/A   Clear
9:35 AM 48.2 °F - 32.0 °F 54% 30.08 in 10.0 mi SW 5.8 mph - N/A   Clear
9:55 AM 48.2 °F - 32.0 °F 54% 30.08 in 10.0 mi WSW 6.9 mph - N/A   Clear
10:15 AM 50.0 °F - 32.0 °F 50% 30.08 in 10.0 mi West 4.6 mph - N/A   Clear
10:35 AM 48.2 °F - 32.0 °F 54% 30.09 in 10.0 mi West 3.5 mph - N/A   Clear
10:55 AM 50.0 °F - 32.0 °F 50% 30.08 in 10.0 mi Calm Calm - N/A   Clear
11:15 AM 50.0 °F - 32.0 °F 50% 30.09 in 10.0 mi Calm Calm - N/A   Clear
11:35 AM 53.6 °F - 32.0 °F 44% 30.09 in 10.0 mi NNE 4.6 mph - N/A   Clear
11:55 AM 55.4 °F - 30.2 °F 38% 30.09 in 10.0 mi NE 5.8 mph - N/A   Clear
12:15 PM 57.2 °F - 30.2 °F 36% 30.09 in 10.0 mi NNE 6.9 mph - N/A   Clear
12:35 PM 57.2 °F - 28.4 °F 33% 30.08 in 10.0 mi East 5.8 mph - N/A   Clear
12:55 PM 57.2 °F - 26.6 °F 31% 30.08 in 10.0 mi NE 9.2 mph - N/A   Clear
1:15 PM 59.0 °F - 24.8 °F 27% 30.08 in 10.0 mi NNE 4.6 mph - N/A   Clear
1:35 PM 59.0 °F - 24.8 °F 27% 30.08 in 10.0 mi NNE 8.1 mph - N/A   Clear
1:55 PM 59.0 °F - 23.0 °F 25% 30.07 in 10.0 mi ENE 6.9 mph - N/A   Clear
2:15 PM 59.0 °F - 24.8 °F 27% 30.07 in 10.0 mi ENE 8.1 mph - N/A   Clear
2:35 PM 59.0 °F - 19.4 °F 22% 30.07 in 10.0 mi North 10.4 mph - N/A   Clear
3:15 PM 60.8 °F - 15.8 °F 17% 30.07 in 10.0 mi NNW 6.9 mph 16.1 mph N/A   Clear
3:35 PM 62.6 °F - 17.6 °F 18% 30.07 in 10.0 mi North 12.7 mph - N/A   Clear
3:55 PM 62.6 °F - 17.6 °F 18% 30.06 in 10.0 mi North 10.4 mph - N/A   Clear
4:15 PM 60.8 °F - 15.8 °F 17% 30.06 in 10.0 mi East 4.6 mph - N/A   Clear
4:55 PM 62.6 °F - 19.4 °F 19% 30.06 in 10.0 mi NNW 4.6 mph - N/A   Clear
5:15 PM 62.6 °F - 19.4 °F 19% 30.05 in 10.0 mi SW 4.6 mph - N/A   Clear
5:35 PM 62.6 °F - 19.4 °F 19% 30.05 in 10.0 mi West 4.6 mph - N/A   Clear
5:55 PM 62.6 °F - 19.4 °F 19% 30.05 in 10.0 mi NNW 5.8 mph - N/A   Clear
6:15 PM 62.6 °F - 17.6 °F 18% 30.05 in 10.0 mi NNW 4.6 mph - N/A   Clear
6:35 PM 62.6 °F - 19.4 °F 19% 30.05 in 10.0 mi WNW 4.6 mph - N/A   Clear
6:55 PM 62.6 °F - 17.6 °F 18% 30.04 in 10.0 mi Calm Calm - N/A   Clear
7:15 PM 62.6 °F - 17.6 °F 18% 30.04 in 10.0 mi North 4.6 mph - N/A   Clear
7:35 PM 60.8 °F - 21.2 °F 22% 30.04 in 10.0 mi East 4.6 mph - N/A   Clear
7:55 PM 60.8 °F - 21.2 °F 22% 30.04 in 10.0 mi ENE 4.6 mph - N/A   Clear
8:15 PM 59.0 °F - 23.0 °F 25% 30.04 in 10.0 mi ENE 5.8 mph - N/A   Clear
8:55 PM 53.6 °F - 32.0 °F 44% 30.05 in 10.0 mi North 8.1 mph - N/A   Partly Cloudy
9:15 PM 53.6 °F - 32.0 °F 44% 30.05 in 10.0 mi North 5.8 mph - N/A   Scattered Clouds
9:35 PM 46.4 °F 45.2 °F 32.0 °F 57% 30.06 in 7.0 mi North 3.5 mph - N/A   Clear
9:55 PM 48.2 °F - 32.0 °F 54% 30.05 in 10.0 mi Calm Calm - N/A   Partly Cloudy
10:15 PM 41.0 °F 38.0 °F 32.0 °F 70% 30.06 in 10.0 mi South 4.6 mph - N/A   Mostly Cloudy
10:35 PM 39.2 °F 35.0 °F 32.0 °F 75% 30.05 in 10.0 mi SSE 5.8 mph - N/A   Overcast
10:55 PM 39.2 °F 33.6 °F 32.0 °F 75% 30.05 in 10.0 mi SSE 8.1 mph - N/A   Overcast
11:15 PM 39.2 °F 35.0 °F 32.0 °F 75% 30.05 in 10.0 mi SSE 5.8 mph - N/A   Overcast
11:35 PM 39.2 °F 35.0 °F 32.0 °F 75% 30.05 in 10.0 mi SSE 5.8 mph - N/A   Overcast
11:55 PM 39.2 °F 37.0 °F 32.0 °F 75% 30.05 in 10.0 mi SE 3.5 mph - N/A   Overcast